Terminal Aerodrome Forecast
Issued by NWS

Home | Current Version | Previous Version | Text Only | Print | Product List | Glossary On
Versions: 1 2 3 4 5 6 7 8 9 10 11 12 13 14 15 16 17 18 19 20 21 22 23 24 25 26 27 28
000
FTUS45 KLKN 241120
TAFWMC
TAF
KWMC 241120Z 2412/2512 VRB04KT P6SM SCT040 BKN100
      TEMPO 2412/2415 4SM -SHRA BR BKN030
     FM242000 32009KT P6SM VCSH BKN050
      TEMPO 2422/2502 5SM -TSRA BKN030CB OVC050=

USA.gov is the U.S. government's official web portal to all federal, state and local government web resources and services.